Waterloo Airport

CYKF | YKF

Kitchener , Ontario , Canada

Saturday, September 21st, 2019 | 07:50

Weather

CYKF 211141Z AUTO 07003KT 5SM BR FEW043 SCT170 13/13 A3021 RMK SLP230

Charts

No Charts Available

Gates

96 Available

Runways

2 Available

Events

No events for this airport


New event